Time;durP1;ratioP1;P1;durP2;ratioP2;P2;SDS_P1;SDS_P2;PMS_P1;PMS_P2;Temp;Humidity;BMP_temperature;BMP_pressure;BME280_temperature;BME280_humidity;BME280_pressure;Samples;Min_cycle;Max_cycle;Signal;HPM_P1;HPM_P2
2022/09/25 00:01:19;;;;;;;91.17;81.53;;;13.90;99.90;;;;;;5010406;28;20229;-51
2022/09/25 00:03:48;;;;;;;26.43;23.50;;;13.90;99.90;;;;;;5010148;28;20805;-50
2022/09/25 00:06:17;;;;;;;75.00;57.33;;;13.90;99.90;;;;;;5010889;28;20218;-51
2022/09/25 00:08:45;;;;;;;23.07;18.97;;;13.90;99.90;;;;;;5020827;28;20689;-51
2022/09/25 00:11:15;;;;;;;32.80;25.33;;;13.90;99.90;;;;;;5008863;28;20321;-50
2022/09/25 00:13:44;;;;;;;33.47;23.67;;;13.80;99.90;;;;;;5010683;28;20234;-50
2022/09/25 00:16:16;;;;;;;68.37;53.13;;;13.80;99.90;;;;;;5011031;28;20822;-50
2022/09/25 00:21:33;;;;;;;27.60;19.83;;;13.80;99.90;;;;;;5009923;28;20718;-51
2022/09/25 00:24:03;;;;;;;59.97;41.80;;;13.80;99.90;;;;;;5010173;28;20206;-51
2022/09/25 00:26:35;;;;;;;27.20;21.93;;;13.80;99.90;;;;;;5010287;28;20230;-51
2022/09/25 00:29:04;;;;;;;92.00;80.60;;;13.70;99.90;;;;;;5009473;28;20218;-51
2022/09/25 00:31:32;;;;;;;76.83;69.20;;;13.70;99.90;;;;;;5010050;28;20281;-50
2022/09/25 00:34:04;;;;;;;37.97;31.47;;;13.70;99.90;;;;;;5007167;28;20203;-51
2022/09/25 00:36:33;;;;;;;27.13;19.47;;;13.70;99.90;;;;;;5009206;28;20247;-51
2022/09/25 00:39:01;;;;;;;61.07;53.00;;;13.70;99.90;;;;;;5009739;28;20293;-51
2022/09/25 00:41:31;;;;;;;55.67;40.20;;;13.70;99.90;;;;;;5009723;28;20314;-51
2022/09/25 00:44:01;;;;;;;117.40;100.80;;;13.70;99.90;;;;;;5009325;28;20203;-51
2022/09/25 00:46:32;;;;;;;50.67;41.57;;;13.70;99.90;;;;;;5010310;28;20752;-51
2022/09/25 00:49:04;;;;;;;67.13;46.07;;;13.70;99.90;;;;;;5010105;28;20217;-50
2022/09/25 00:51:40;;;;;;;87.70;69.87;;;13.70;99.90;;;;;;5009332;28;20231;-51
2022/09/25 00:54:13;;;;;;;52.17;37.23;;;13.60;99.90;;;;;;5009236;28;20214;-51
2022/09/25 00:56:44;;;;;;;50.63;39.70;;;13.60;99.90;;;;;;5009822;28;20302;-50
2022/09/25 00:59:17;;;;;;;42.43;30.37;;;13.60;99.90;;;;;;5009253;28;20267;-50
2022/09/25 01:01:45;;;;;;;42.70;38.00;;;13.60;99.90;;;;;;5009734;28;20290;-51
2022/09/25 01:04:15;;;;;;;56.77;51.03;;;13.60;99.90;;;;;;5009757;28;20217;-51
2022/09/25 01:06:43;;;;;;;93.90;83.63;;;13.60;99.90;;;;;;5009198;28;20684;-51
2022/09/25 01:09:11;;;;;;;80.20;70.57;;;13.60;99.90;;;;;;5009413;28;20262;-51
2022/09/25 01:11:39;;;;;;;22.90;19.60;;;13.60;99.90;;;;;;5010174;28;20238;-51
2022/09/25 01:14:09;;;;;;;28.30;22.40;;;13.60;99.90;;;;;;5008928;28;20207;-50
2022/09/25 01:16:45;;;;;;;37.93;28.80;;;13.60;99.90;;;;;;5009916;28;20257;-50
2022/09/25 01:19:34;;;;;;;93.50;83.03;;;13.60;99.90;;;;;;5009966;28;20213;-51
2022/09/25 01:22:10;;;;;;;85.83;67.37;;;13.60;99.90;;;;;;5008773;28;20293;-51
2022/09/25 01:24:51;;;;;;;60.20;44.00;;;13.50;99.90;;;;;;5009409;28;20198;-51
2022/09/25 01:27:38;;;;;;;27.47;21.90;;;13.50;99.90;;;;;;5002625;28;20203;-51
2022/09/25 01:30:10;;;;;;;39.70;28.80;;;13.40;99.90;;;;;;5009093;28;20226;-51
2022/09/25 01:32:51;;;;;;;65.53;46.60;;;13.40;99.90;;;;;;5007516;28;20227;-50
2022/09/25 01:35:30;;;;;;;76.87;61.73;;;13.40;99.90;;;;;;4997911;28;20302;-51
2022/09/25 01:38:03;;;;;;;54.17;43.20;;;13.40;99.90;;;;;;5009557;28;20763;-50
2022/09/25 01:40:35;;;;;;;83.93;64.03;;;13.50;99.90;;;;;;5009730;28;20273;-51
2022/09/25 01:43:10;;;;;;;41.13;30.83;;;13.50;99.90;;;;;;5009104;28;20219;-51
2022/09/25 01:45:46;;;;;;;46.13;30.80;;;13.50;99.90;;;;;;5009703;28;20233;-51
2022/09/25 01:48:17;;;;;;;48.63;40.53;;;13.50;99.90;;;;;;5004223;28;20209;-51
2022/09/25 01:50:50;;;;;;;35.87;28.70;;;13.40;99.90;;;;;;5009969;28;20309;-50
2022/09/25 01:53:23;;;;;;;54.73;37.27;;;13.40;99.90;;;;;;5017519;28;20245;-51
2022/09/25 01:55:56;;;;;;;78.33;68.20;;;13.40;99.90;;;;;;5009629;28;20218;-51
2022/09/25 01:58:28;;;;;;;63.30;44.83;;;13.40;99.90;;;;;;5009305;28;20290;-51
2022/09/25 02:01:05;;;;;;;81.73;56.40;;;13.40;99.90;;;;;;5009372;28;20266;-51
2022/09/25 02:03:38;;;;;;;68.33;46.37;;;13.40;99.90;;;;;;5008883;28;20213;-50
2022/09/25 02:06:08;;;;;;;164.03;103.57;;;13.40;99.90;;;;;;5011546;28;20242;-50
2022/09/25 02:08:42;;;;;;;38.20;26.27;;;13.40;99.90;;;;;;5013510;28;20242;-51
2022/09/25 02:11:13;;;;;;;45.03;34.60;;;13.40;99.90;;;;;;5013364;28;20254;-51
2022/09/25 02:13:47;;;;;;;209.30;111.83;;;13.40;99.90;;;;;;5012364;28;20265;-51
2022/09/25 02:16:22;;;;;;;42.23;33.17;;;13.40;99.90;;;;;;5013645;28;20238;-51
2022/09/25 02:21:55;;;;;;;115.67;72.23;;;13.30;99.90;;;;;;4970288;28;20331;-50
2022/09/25 02:24:29;;;;;;;65.37;51.40;;;13.30;99.90;;;;;;5005846;28;20755;-51
2022/09/25 02:26:57;;;;;;;42.60;35.93;;;13.30;99.90;;;;;;5012975;28;20303;-51
2022/09/25 02:29:25;;;;;;;44.17;31.17;;;13.30;99.90;;;;;;5013224;28;20210;-51
2022/09/25 02:31:58;;;;;;;45.03;33.80;;;13.30;99.90;;;;;;5012469;28;20724;-51
2022/09/25 02:34:26;;;;;;;52.03;38.70;;;13.30;99.90;;;;;;5013039;28;20302;-50
2022/09/25 02:36:54;;;;;;;66.70;47.53;;;13.20;99.90;;;;;;5012524;28;20286;-51
2022/09/25 02:39:26;;;;;;;42.63;34.37;;;13.20;99.90;;;;;;5013122;28;20326;-51
2022/09/25 02:42:07;;;;;;;37.10;29.17;;;13.20;99.90;;;;;;5012500;28;20230;-51
2022/09/25 02:44:45;;;;;;;67.87;48.83;;;13.30;99.90;;;;;;5012635;28;20249;-51
2022/09/25 02:47:26;;;;;;;37.87;28.43;;;13.30;99.90;;;;;;5012956;28;20293;-50
2022/09/25 02:50:04;;;;;;;49.10;40.27;;;13.20;99.90;;;;;;5012122;28;20233;-50
2022/09/25 02:52:37;;;;;;;43.63;32.60;;;13.30;99.90;;;;;;5011384;28;20318;-51
2022/09/25 02:55:08;;;;;;;50.13;42.90;;;13.30;99.90;;;;;;5012348;28;20242;-50
2022/09/25 02:57:42;;;;;;;61.17;47.60;;;13.20;99.90;;;;;;5012023;28;20207;-50
2022/09/25 03:00:12;;;;;;;43.97;34.47;;;13.30;99.90;;;;;;5012590;28;20241;-51
2022/09/25 03:02:43;;;;;;;64.73;55.33;;;13.20;99.90;;;;;;5012527;28;20210;-51
2022/09/25 03:05:20;;;;;;;83.90;59.13;;;13.20;99.90;;;;;;5012512;28;20249;-51
2022/09/25 03:10:36;;;;;;;54.17;47.50;;;13.20;99.90;;;;;;5011985;28;20241;-51
2022/09/25 03:13:14;;;;;;;38.33;27.53;;;13.20;99.90;;;;;;5011719;28;20322;-50
2022/09/25 03:15:45;;;;;;;23.13;17.63;;;13.20;99.90;;;;;;5011565;28;20289;-50
2022/09/25 03:18:15;;;;;;;39.73;30.27;;;13.20;99.90;;;;;;5012136;28;20211;-52
2022/09/25 03:20:43;;;;;;;85.90;57.97;;;13.20;99.90;;;;;;5011392;28;20231;-51
2022/09/25 03:23:11;;;;;;;29.67;24.33;;;13.20;99.90;;;;;;5011591;28;20680;-51
2022/09/25 03:25:40;;;;;;;32.90;26.17;;;13.20;99.90;;;;;;5012260;28;20358;-51
2022/09/25 03:28:14;;;;;;;33.93;27.23;;;13.20;99.90;;;;;;5012090;28;20787;-50
2022/09/25 03:30:43;;;;;;;54.20;41.23;;;13.20;99.90;;;;;;5011929;28;20337;-51
2022/09/25 03:33:13;;;;;;;38.30;32.37;;;13.20;99.90;;;;;;5009662;28;20862;-50
2022/09/25 03:35:41;;;;;;;30.20;23.70;;;13.20;99.90;;;;;;5015859;28;20285;-49
2022/09/25 03:38:09;;;;;;;70.20;61.13;;;13.20;99.90;;;;;;5012663;28;20207;-51
2022/09/25 03:40:37;;;;;;;57.67;46.07;;;13.30;99.90;;;;;;5010509;28;20250;-51
2022/09/25 03:43:06;;;;;;;337.03;164.63;;;13.20;99.90;;;;;;5010978;28;20290;-51
2022/09/25 03:45:32;;;;;;;51.93;37.17;;;13.10;99.90;;;;;;5011700;28;20202;-52
2022/09/25 03:48:01;;;;;;;54.50;41.60;;;13.10;99.90;;;;;;5011199;28;20295;-51
2022/09/25 03:50:30;;;;;;;39.80;27.57;;;13.20;99.90;;;;;;5011410;28;20261;-51
2022/09/25 03:52:58;;;;;;;35.73;26.73;;;13.20;99.90;;;;;;5010667;28;20227;-51
2022/09/25 03:55:26;;;;;;;79.03;57.30;;;13.20;99.90;;;;;;5011449;28;20764;-51
2022/09/25 03:57:54;;;;;;;76.00;66.57;;;13.20;99.90;;;;;;5011372;28;20736;-51
2022/09/25 04:00:22;;;;;;;189.87;104.60;;;13.20;99.90;;;;;;5011350;28;20807;-50
2022/09/25 04:02:50;;;;;;;40.67;31.10;;;13.30;99.90;;;;;;5011518;28;20330;-51
2022/09/25 04:05:20;;;;;;;77.47;56.33;;;13.20;99.90;;;;;;5012201;28;20211;-51
2022/09/25 04:07:49;;;;;;;371.20;238.53;;;13.20;99.90;;;;;;5010846;28;20213;-51
2022/09/25 04:10:17;;;;;;;69.73;54.40;;;13.20;99.90;;;;;;5011449;28;20241;-51
2022/09/25 04:12:45;;;;;;;49.63;37.17;;;13.10;99.90;;;;;;5010595;28;20222;-51
2022/09/25 04:15:14;;;;;;;62.93;47.60;;;13.20;99.90;;;;;;5011602;28;20226;-51
2022/09/25 04:17:42;;;;;;;48.27;38.27;;;13.20;99.90;;;;;;5011322;28;20731;-51
2022/09/25 04:20:10;;;;;;;45.50;32.97;;;13.10;99.90;;;;;;5011036;28;20614;-51
2022/09/25 04:22:38;;;;;;;66.37;46.87;;;13.10;99.90;;;;;;5010655;28;20211;-51
2022/09/25 04:25:08;;;;;;;52.73;39.90;;;13.10;99.90;;;;;;5010937;28;20221;-51
2022/09/25 04:27:37;;;;;;;57.23;41.40;;;13.10;99.90;;;;;;5010168;28;20590;-51
2022/09/25 04:30:06;;;;;;;87.70;58.53;;;13.20;99.90;;;;;;5010727;28;20317;-51
2022/09/25 04:35:19;;;;;;;31.57;23.67;;;13.20;99.90;;;;;;5000523;28;20307;-50
2022/09/25 04:37:47;;;;;;;24.93;20.23;;;13.20;99.90;;;;;;5010639;28;20210;-50
2022/09/25 04:40:16;;;;;;;25.77;19.90;;;13.20;99.90;;;;;;5011111;28;20259;-50
2022/09/25 04:42:45;;;;;;;39.97;34.47;;;13.20;99.90;;;;;;5009433;28;20214;-51
2022/09/25 04:45:13;;;;;;;55.27;35.20;;;13.20;99.90;;;;;;5010347;28;20228;-51
2022/09/25 04:47:41;;;;;;;50.20;35.27;;;13.20;99.90;;;;;;5010757;28;20299;-51
2022/09/25 04:50:09;;;;;;;45.70;40.70;;;13.20;99.90;;;;;;5010004;28;20357;-51
2022/09/25 04:52:37;;;;;;;56.33;38.67;;;13.20;99.90;;;;;;5009709;28;20353;-51
2022/09/25 04:55:06;;;;;;;69.70;55.93;;;13.20;99.90;;;;;;5010121;28;20289;-51
2022/09/25 04:57:36;;;;;;;22.47;18.40;;;13.20;99.90;;;;;;5010295;28;20261;-50
2022/09/25 05:00:25;;;;;;;36.57;24.87;;;13.20;99.90;;;;;;5010320;28;20237;-51
2022/09/25 05:02:53;;;;;;;54.13;38.43;;;13.20;99.90;;;;;;5009651;28;20386;-51
2022/09/25 05:05:29;;;;;;;43.53;35.93;;;13.20;99.90;;;;;;5010435;28;20611;-51
2022/09/25 05:07:59;;;;;;;49.03;40.23;;;13.20;99.90;;;;;;5010005;28;20219;-51
2022/09/25 05:10:29;;;;;;;60.73;45.90;;;13.20;99.90;;;;;;5010019;28;20335;-50
2022/09/25 05:13:00;;;;;;;138.50;77.90;;;13.20;99.90;;;;;;5015557;28;20202;-51
2022/09/25 05:15:31;;;;;;;63.47;42.37;;;13.10;99.90;;;;;;5010085;28;20258;-52
2022/09/25 05:18:00;;;;;;;65.70;52.33;;;13.10;99.90;;;;;;5009200;28;20293;-51
2022/09/25 05:20:28;;;;;;;31.93;21.87;;;13.10;99.90;;;;;;5009741;28;20606;-51
2022/09/25 05:22:57;;;;;;;31.53;26.67;;;13.10;99.90;;;;;;5009117;28;20676;-51
2022/09/25 05:25:26;;;;;;;38.77;32.77;;;13.20;99.90;;;;;;5010104;28;21000;-51
2022/09/25 05:27:57;;;;;;;203.03;116.43;;;13.10;99.90;;;;;;5009330;28;20211;-50
2022/09/25 05:30:28;;;;;;;32.60;25.30;;;13.20;99.90;;;;;;5010174;28;20257;-51
2022/09/25 05:32:58;;;;;;;62.13;45.97;;;13.10;99.90;;;;;;5008204;28;20282;-51
2022/09/25 05:35:27;;;;;;;46.20;41.37;;;13.10;99.90;;;;;;5009789;28;20241;-51
2022/09/25 05:37:56;;;;;;;42.30;36.90;;;13.00;99.90;;;;;;5009108;28;20240;-51
2022/09/25 05:40:24;;;;;;;180.83;123.20;;;13.10;99.90;;;;;;5009735;28;20325;-51
2022/09/25 05:42:53;;;;;;;250.63;129.33;;;13.00;99.90;;;;;;5008785;28;20211;-52
2022/09/25 05:45:23;;;;;;;34.80;30.07;;;12.90;99.90;;;;;;5009702;28;20317;-50
2022/09/25 05:48:01;;;;;;;45.67;39.40;;;12.90;99.90;;;;;;5009748;28;20265;-52
2022/09/25 05:50:31;;;;;;;27.37;21.00;;;12.90;99.90;;;;;;5009694;28;20222;-51
2022/09/25 05:53:00;;;;;;;64.10;41.37;;;12.80;99.90;;;;;;5008568;28;20560;-50
2022/09/25 05:55:29;;;;;;;84.03;46.60;;;12.80;99.90;;;;;;5009762;28;20237;-51
2022/09/25 05:58:01;;;;;;;28.10;23.63;;;12.90;99.90;;;;;;5009306;28;20217;-50
2022/09/25 06:00:31;;;;;;;105.33;81.50;;;12.90;99.90;;;;;;5009194;28;20582;-51
2022/09/25 06:03:01;;;;;;;71.60;46.83;;;12.90;99.90;;;;;;5008900;28;20294;-51
2022/09/25 06:05:29;;;;;;;16.73;13.20;;;12.90;99.90;;;;;;5008521;28;20199;-51
2022/09/25 06:07:58;;;;;;;37.00;26.17;;;12.90;99.90;;;;;;5008846;28;20203;-50
2022/09/25 06:10:26;;;;;;;47.10;34.87;;;12.90;99.90;;;;;;5008825;28;20322;-51
2022/09/25 06:12:58;;;;;;;28.10;21.93;;;13.00;99.90;;;;;;5008789;28;20214;-52
2022/09/25 06:15:27;;;;;;;68.63;45.83;;;12.90;99.90;;;;;;5009052;28;20649;-51
2022/09/25 06:17:55;;;;;;;62.03;43.30;;;12.90;99.90;;;;;;5008947;28;20669;-51
2022/09/25 06:20:25;;;;;;;142.50;79.90;;;12.90;99.90;;;;;;5009011;28;20803;-51
2022/09/25 06:22:53;;;;;;;32.40;26.37;;;12.80;99.90;;;;;;5008487;28;20257;-51
2022/09/25 06:25:22;;;;;;;112.97;87.37;;;12.80;99.90;;;;;;5001692;28;20357;-51
2022/09/25 06:27:53;;;;;;;38.90;28.33;;;12.80;99.90;;;;;;4994924;28;20669;-51
2022/09/25 06:30:21;;;;;;;40.63;30.20;;;12.80;99.90;;;;;;4990543;28;20226;-51
2022/09/25 06:32:56;;;;;;;126.90;66.93;;;12.80;99.90;;;;;;4990374;28;20832;-50
2022/09/25 06:35:25;;;;;;;50.83;41.27;;;12.80;99.90;;;;;;4999989;28;20226;-50
2022/09/25 06:37:56;;;;;;;56.80;36.70;;;12.80;99.90;;;;;;4989591;28;20299;-51
2022/09/25 06:40:26;;;;;;;27.03;19.60;;;12.80;99.90;;;;;;4999063;28;20310;-51
2022/09/25 06:42:58;;;;;;;103.30;61.00;;;12.80;99.90;;;;;;4992743;28;20235;-50
2022/09/25 06:45:27;;;;;;;56.80;37.23;;;12.80;99.90;;;;;;4999709;28;20207;-51
2022/09/25 06:48:00;;;;;;;131.40;54.97;;;12.80;99.90;;;;;;4991341;28;20647;-51
2022/09/25 06:50:36;;;;;;;31.00;22.50;;;12.80;99.90;;;;;;4993769;28;20226;-52
2022/09/25 06:53:04;;;;;;;59.10;44.20;;;12.80;99.90;;;;;;5008392;28;20298;-51
2022/09/25 06:55:33;;;;;;;132.57;79.93;;;12.80;99.90;;;;;;4998517;28;20227;-51
2022/09/25 06:58:01;;;;;;;165.37;105.03;;;12.80;99.90;;;;;;5003507;28;20567;-51
2022/09/25 07:00:29;;;;;;;50.43;36.47;;;12.80;99.90;;;;;;5006834;28;20337;-51
2022/09/25 07:05:46;;;;;;;103.23;63.07;;;12.80;99.90;;;;;;5011832;28;20916;-51
2022/09/25 07:08:16;;;;;;;125.90;93.93;;;12.80;99.90;;;;;;5006409;28;20214;-51
2022/09/25 07:10:49;;;;;;;45.43;35.43;;;12.80;99.90;;;;;;5012029;28;20676;-51
2022/09/25 07:13:17;;;;;;;47.27;30.97;;;12.80;99.90;;;;;;4997321;28;20242;-51
2022/09/25 07:15:51;;;;;;;23.53;16.40;;;12.80;99.90;;;;;;5009620;28;20610;-51
2022/09/25 07:18:19;;;;;;;36.83;25.97;;;12.80;99.90;;;;;;5010183;28;20217;-51
2022/09/25 07:20:49;;;;;;;26.73;18.17;;;12.90;99.90;;;;;;5009878;28;20342;-51
2022/09/25 07:23:20;;;;;;;39.67;27.80;;;12.90;99.90;;;;;;5009764;28;20345;-50
2022/09/25 07:25:49;;;;;;;83.43;46.27;;;13.00;99.90;;;;;;5010199;28;20203;-51
2022/09/25 07:28:18;;;;;;;43.83;34.60;;;13.00;99.90;;;;;;5009822;28;20222;-51
2022/09/25 07:30:48;;;;;;;110.37;56.40;;;12.90;99.90;;;;;;5012494;28;20235;-51
2022/09/25 07:33:16;;;;;;;56.27;45.00;;;12.90;99.90;;;;;;5010463;28;20207;-51
2022/09/25 07:35:44;;;;;;;122.50;106.40;;;12.90;99.90;;;;;;5011975;28;20231;-51
2022/09/25 07:38:14;;;;;;;20.63;16.73;;;12.90;99.90;;;;;;5011322;28;20250;-51
2022/09/25 07:40:42;;;;;;;95.57;53.93;;;12.90;99.90;;;;;;5011287;28;20222;-50
2022/09/25 07:43:10;;;;;;;65.47;59.27;;;13.00;99.90;;;;;;5000385;28;20688;-51
2022/09/25 07:45:38;;;;;;;48.53;29.73;;;13.00;99.90;;;;;;4999744;28;20217;-51
2022/09/25 07:48:06;;;;;;;52.63;34.27;;;13.00;99.90;;;;;;5006496;28;20298;-51
2022/09/25 07:50:35;;;;;;;274.70;189.03;;;13.00;99.90;;;;;;4999593;28;20306;-52
2022/09/25 07:53:03;;;;;;;47.50;32.60;;;13.20;99.90;;;;;;5005210;28;20698;-51
2022/09/25 07:55:32;;;;;;;79.23;58.23;;;13.10;99.90;;;;;;5010907;28;20405;-51
2022/09/25 07:58:00;;;;;;;205.90;143.83;;;13.10;99.90;;;;;;5001952;28;20209;-51
2022/09/25 08:00:28;;;;;;;82.37;48.17;;;13.10;99.90;;;;;;4998600;28;20310;-51
2022/09/25 08:02:57;;;;;;;36.73;24.57;;;13.20;99.90;;;;;;5001707;28;20294;-51
2022/09/25 08:05:26;;;;;;;27.97;17.83;;;13.10;99.90;;;;;;5008211;28;20233;-52
2022/09/25 08:07:55;;;;;;;43.03;29.70;;;13.20;99.90;;;;;;5009074;28;20330;-51
2022/09/25 08:10:23;;;;;;;58.13;46.40;;;13.10;99.90;;;;;;5009069;28;20317;-50
2022/09/25 08:12:53;;;;;;;56.47;45.53;;;13.20;99.90;;;;;;5008338;28;20302;-50
2022/09/25 08:15:21;;;;;;;66.27;44.00;;;13.10;99.90;;;;;;5007257;28;20216;-51
2022/09/25 08:17:49;;;;;;;38.30;28.83;;;13.10;99.90;;;;;;5004007;28;20294;-51
2022/09/25 08:20:17;;;;;;;384.53;197.47;;;13.10;99.90;;;;;;5001643;28;20650;-51
2022/09/25 08:22:46;;;;;;;34.93;19.13;;;13.20;99.90;;;;;;5010295;28;20691;-51
2022/09/25 08:25:14;;;;;;;56.47;37.43;;;13.20;99.90;;;;;;5010412;28;20239;-51
2022/09/25 08:27:43;;;;;;;26.77;20.30;;;13.20;99.90;;;;;;5010071;28;20579;-51
2022/09/25 08:30:16;;;;;;;42.30;28.37;;;13.20;99.90;;;;;;5006477;28;20238;-51
2022/09/25 08:32:44;;;;;;;88.00;60.73;;;13.20;99.90;;;;;;5004734;28;20211;-51
2022/09/25 08:35:13;;;;;;;542.93;319.80;;;13.20;99.90;;;;;;5005883;28;20314;-51
2022/09/25 08:37:43;;;;;;;47.37;39.87;;;13.30;99.90;;;;;;5009442;28;20203;-51
2022/09/25 08:40:18;;;;;;;57.23;44.23;;;13.20;99.90;;;;;;5007160;28;20231;-51
2022/09/25 08:42:49;;;;;;;110.00;69.63;;;13.20;99.90;;;;;;5004589;28;20213;-51
2022/09/25 08:51:09;;;;;;;62.23;41.23;;;13.20;99.90;;;;;;4997525;28;20313;-51
2022/09/25 08:53:39;;;;;;;55.70;48.73;;;13.20;99.90;;;;;;5009787;28;20297;-52
2022/09/25 08:56:16;;;;;;;53.90;34.53;;;13.20;99.90;;;;;;5009752;28;20314;-51
2022/09/25 08:58:51;;;;;;;123.67;74.60;;;13.20;99.90;;;;;;5005511;28;20211;-51
2022/09/25 09:01:24;;;;;;;125.37;65.10;;;13.30;99.90;;;;;;5002918;28;20321;-51
2022/09/25 09:03:57;;;;;;;155.73;94.17;;;13.30;99.90;;;;;;4995427;28;20258;-51
2022/09/25 09:06:27;;;;;;;53.13;39.70;;;13.30;99.90;;;;;;5006681;28;20668;-51
2022/09/25 09:09:05;;;;;;;51.80;37.40;;;13.30;99.90;;;;;;4998890;28;20207;-51
2022/09/25 09:11:38;;;;;;;113.43;67.83;;;13.30;99.90;;;;;;5007345;28;20250;-51
2022/09/25 09:14:11;;;;;;;76.90;56.03;;;13.30;99.90;;;;;;5004459;28;20326;-51
2022/09/25 09:16:44;;;;;;;66.77;51.17;;;13.30;99.90;;;;;;5001080;28;20281;-51
2022/09/25 09:19:13;;;;;;;176.30;115.47;;;13.30;99.90;;;;;;5009161;28;20289;-51
2022/09/25 09:21:47;;;;;;;61.50;41.33;;;13.20;99.90;;;;;;5004657;28;20309;-52
2022/09/25 09:24:17;;;;;;;40.77;30.57;;;13.30;99.90;;;;;;5008598;28;20239;-51
2022/09/25 09:27:05;;;;;;;28.57;21.13;;;13.30;99.90;;;;;;5008800;28;20290;-51
2022/09/25 09:30:00;;;;;;;27.57;18.03;;;13.30;99.90;;;;;;5008193;28;20667;-51
2022/09/25 09:32:45;;;;;;;58.80;40.80;;;13.40;99.90;;;;;;5006124;28;20217;-50
2022/09/25 09:35:24;;;;;;;100.73;72.63;;;13.40;99.90;;;;;;5005304;28;20302;-50
2022/09/25 09:38:11;;;;;;;24.17;17.97;;;13.40;99.90;;;;;;5005539;28;20207;-50
2022/09/25 09:41:03;;;;;;;45.23;28.40;;;13.40;99.90;;;;;;5007379;28;20313;-51
2022/09/25 09:43:42;;;;;;;51.50;31.70;;;13.40;99.90;;;;;;5007586;28;20915;-51
2022/09/25 09:46:20;;;;;;;19.40;12.40;;;13.40;99.90;;;;;;5009047;28;20230;-51
2022/09/25 09:49:11;;;;;;;24.60;19.13;;;13.50;99.90;;;;;;5007578;28;20211;-50
2022/09/25 09:51:43;;;;;;;29.90;24.27;;;13.50;99.90;;;;;;5003877;28;20231;-51
2022/09/25 09:54:16;;;;;;;25.17;15.80;;;13.50;99.90;;;;;;5007069;28;20297;-50
2022/09/25 09:56:48;;;;;;;55.10;37.20;;;13.50;99.90;;;;;;5006478;28;20221;-51
2022/09/25 09:59:18;;;;;;;45.17;38.97;;;13.50;99.90;;;;;;5006764;28;20207;-51
2022/09/25 10:01:59;;;;;;;103.43;62.73;;;13.50;99.90;;;;;;5006905;28;20321;-50
2022/09/25 10:04:33;;;;;;;9.30;7.43;;;13.50;99.90;;;;;;5008038;28;20210;-51
2022/09/25 10:07:05;;;;;;;162.47;106.93;;;13.60;99.90;;;;;;5008036;28;20293;-51
2022/09/25 10:09:33;;;;;;;185.23;109.73;;;13.50;99.90;;;;;;5007146;28;20210;-50
2022/09/25 10:12:03;;;;;;;36.70;27.67;;;13.40;99.90;;;;;;5007555;28;20680;-51
2022/09/25 10:14:36;;;;;;;79.13;50.57;;;13.50;99.90;;;;;;5008074;28;20662;-50
2022/09/25 10:17:06;;;;;;;46.10;30.00;;;13.60;99.90;;;;;;5007394;28;20322;-50
2022/09/25 10:19:44;;;;;;;47.67;28.87;;;13.60;99.90;;;;;;5006600;28;20214;-51
2022/09/25 10:22:16;;;;;;;215.73;116.03;;;13.60;99.90;;;;;;5007319;28;20203;-51
2022/09/25 10:24:50;;;;;;;60.97;31.13;;;13.70;99.90;;;;;;5007210;28;20302;-51
2022/09/25 10:27:30;;;;;;;69.17;54.87;;;13.60;99.90;;;;;;5010202;28;20215;-51
2022/09/25 10:30:05;;;;;;;47.10;37.73;;;13.70;99.90;;;;;;5009682;28;20738;-50
2022/09/25 10:32:37;;;;;;;165.73;95.77;;;13.70;99.90;;;;;;5010966;28;20206;-50
2022/09/25 10:35:14;;;;;;;53.90;32.70;;;13.70;99.90;;;;;;5011817;28;20589;-51
2022/09/25 10:37:43;;;;;;;177.53;103.77;;;13.80;99.90;;;;;;5012420;28;20227;-50
2022/09/25 10:40:25;;;;;;;151.30;94.20;;;13.80;99.90;;;;;;5012246;28;21540;-51
2022/09/25 10:43:06;;;;;;;68.63;52.63;;;13.80;99.90;;;;;;5008271;28;20237;-51
2022/09/25 10:45:37;;;;;;;39.63;34.13;;;13.90;99.90;;;;;;5011929;28;20282;-51
2022/09/25 10:51:17;;;;;;;347.23;156.60;;;13.90;99.90;;;;;;5011710;28;20240;-51
2022/09/25 10:53:45;;;;;;;209.10;126.97;;;13.90;99.90;;;;;;5011441;28;20572;-50
2022/09/25 10:56:19;;;;;;;92.27;71.63;;;13.80;99.90;;;;;;5012188;28;20281;-51
2022/09/25 10:58:54;;;;;;;80.07;54.33;;;13.80;99.90;;;;;;5010977;28;20207;-51
2022/09/25 11:01:33;;;;;;;41.77;26.70;;;13.80;99.90;;;;;;5011909;28;20324;-51
2022/09/25 11:04:04;;;;;;;100.40;73.80;;;13.90;99.90;;;;;;5008221;28;20209;-51
2022/09/25 11:06:35;;;;;;;50.90;34.83;;;13.90;99.90;;;;;;5004917;28;20294;-50
2022/09/25 11:09:09;;;;;;;63.93;52.27;;;14.00;99.90;;;;;;5007642;28;20298;-51
2022/09/25 11:11:39;;;;;;;41.30;27.60;;;14.00;99.90;;;;;;5010842;28;20777;-51
2022/09/25 11:14:19;;;;;;;170.83;104.43;;;14.00;99.90;;;;;;5008280;28;20265;-51
2022/09/25 11:16:53;;;;;;;88.47;56.70;;;14.10;99.90;;;;;;5011475;28;20711;-50
2022/09/25 11:19:27;;;;;;;868.47;463.17;;;14.10;99.90;;;;;;5009784;28;20199;-51
2022/09/25 11:22:16;;;;;;;320.07;201.70;;;14.20;99.90;;;;;;5007979;28;20268;-50
2022/09/25 11:24:53;;;;;;;321.83;173.20;;;14.00;99.90;;;;;;5009557;28;20294;-51
2022/09/25 11:27:35;;;;;;;67.43;55.87;;;14.00;99.90;;;;;;5002604;28;20273;-50
2022/09/25 11:30:06;;;;;;;130.93;83.73;;;14.10;99.90;;;;;;5001805;28;20266;-51
2022/09/25 11:32:44;;;;;;;106.57;74.37;;;14.20;99.90;;;;;;5005611;28;20316;-51
2022/09/25 11:35:31;;;;;;;593.07;328.40;;;14.30;99.90;;;;;;5005590;28;20245;-51
2022/09/25 11:38:11;;;;;;;121.63;78.50;;;14.20;99.90;;;;;;5009169;28;20234;-51
2022/09/25 11:43:45;;;;;;;61.00;47.03;;;14.30;99.90;;;;;;5005791;28;20200;-51
2022/09/25 11:46:23;;;;;;;371.90;208.83;;;14.30;99.90;;;;;;5002634;28;20290;-51
2022/09/25 11:49:00;;;;;;;138.83;90.20;;;14.30;99.90;;;;;;5009460;28;20242;-51
2022/09/25 11:51:46;;;;;;;37.23;23.57;;;14.30;99.90;;;;;;5009960;28;20226;-51
2022/09/25 11:54:26;;;;;;;54.43;47.70;;;14.40;99.90;;;;;;5010631;28;20294;-50
2022/09/25 11:57:08;;;;;;;74.53;56.97;;;14.40;99.90;;;;;;5010220;28;20223;-51
2022/09/25 11:59:48;;;;;;;94.47;70.53;;;14.50;99.90;;;;;;5010470;28;20286;-50
2022/09/25 12:02:28;;;;;;;133.93;111.50;;;14.50;99.90;;;;;;5010398;28;20293;-50
2022/09/25 12:05:17;;;;;;;74.90;57.07;;;14.60;99.90;;;;;;5009344;28;20636;-51
2022/09/25 12:08:09;;;;;;;71.47;54.40;;;14.50;99.90;;;;;;5009025;28;20299;-51
2022/09/25 12:10:49;;;;;;;140.17;102.13;;;14.50;99.90;;;;;;5008312;28;20752;-51
2022/09/25 12:13:26;;;;;;;108.97;97.40;;;14.50;99.90;;;;;;5008829;28;20230;-51
2022/09/25 12:16:07;;;;;;;126.77;69.77;;;14.60;99.90;;;;;;5010196;28;20751;-50
2022/09/25 12:19:02;;;;;;;153.97;106.07;;;14.60;99.90;;;;;;5006252;28;20305;-51
2022/09/25 12:21:40;;;;;;;118.97;96.83;;;14.50;99.90;;;;;;5006088;28;20230;-50
2022/09/25 12:24:19;;;;;;;92.00;80.13;;;14.50;99.90;;;;;;5009806;28;20242;-51
2022/09/25 12:26:56;;;;;;;80.03;72.27;;;14.60;99.90;;;;;;5010344;28;20809;-51
2022/09/25 12:29:56;;;;;;;59.97;54.20;;;14.60;99.90;;;;;;5002365;28;20217;-51
2022/09/25 12:32:36;;;;;;;139.77;77.63;;;14.60;99.90;;;;;;5007707;28;20670;-51
2022/09/25 12:35:20;;;;;;;144.83;110.60;;;14.60;99.90;;;;;;5009268;28;20375;-51
2022/09/25 12:37:53;;;;;;;44.00;35.37;;;14.60;99.90;;;;;;5004705;28;20310;-50
2022/09/25 12:40:25;;;;;;;131.23;112.73;;;14.50;99.90;;;;;;4994658;28;20227;-51
2022/09/25 12:42:59;;;;;;;76.10;67.60;;;14.40;99.90;;;;;;4997539;28;20210;-51
2022/09/25 12:45:33;;;;;;;316.73;219.80;;;14.50;99.90;;;;;;5009570;28;20233;-51
2022/09/25 12:48:07;;;;;;;96.77;74.43;;;14.50;99.90;;;;;;4996024;28;20688;-51
2022/09/25 12:50:39;;;;;;;365.23;245.50;;;14.40;99.90;;;;;;5002131;28;20330;-50
2022/09/25 12:53:25;;;;;;;83.83;62.90;;;14.30;99.90;;;;;;5006861;28;20203;-51
2022/09/25 12:55:59;;;;;;;43.60;37.13;;;14.30;99.90;;;;;;5007891;28;20250;-51
2022/09/25 12:58:42;;;;;;;46.53;36.37;;;14.30;99.90;;;;;;5003766;28;20797;-52
2022/09/25 13:01:18;;;;;;;63.97;57.37;;;14.40;99.90;;;;;;5008818;28;20226;-51
2022/09/25 13:03:54;;;;;;;110.90;84.37;;;14.40;99.90;;;;;;5006557;28;20575;-51
2022/09/25 13:06:30;;;;;;;95.47;68.93;;;14.40;99.90;;;;;;5006926;28;20213;-51
2022/09/25 13:09:04;;;;;;;18.70;11.80;;;14.40;99.90;;;;;;5008059;28;20203;-51
2022/09/25 13:11:44;;;;;;;51.83;46.33;;;14.50;99.90;;;;;;5004949;28;20223;-51
2022/09/25 13:14:22;;;;;;;33.17;30.00;;;14.50;99.90;;;;;;5004424;28;20815;-51
2022/09/25 13:16:50;;;;;;;42.30;38.03;;;14.50;99.90;;;;;;5008822;28;20317;-52